Araguapaz, Brazil
Current Conditions -  °F | °C
As of 12:00 PM on Thursday 30 Oct 2014 (Local Time) from SBAN Reporting Station
Broken Clouds Broken Clouds  
Wind Chill: 75°   Ceiling: 1700
Heat Index: 75°   Visibility: 6mi
Dew Point: 64°   Wind: 6mph
Humidity: 69%   Direction: 330°NNW
Pressure: 30.09"   Gusts: NA
Location:  15.09°S, 50.63°W
Report Text: SBAN 301400Z 33005KT 9999 BKN017 BKN100 24/18 Q1019
Loading
Personal Weather Stations






























Interactive Weather Map
Tropical Storm Tracking
New forecast layout! Learn more

10-Day Weather Forecast

Advertisements
Track Severe Weather on mobile